sensor_id;sensor_type;location;lat;lon;timestamp;temperature;humidity
8591;DHT22;4333;48.322;14.340;2023-04-06T00:02:19;1.20;4.80
8591;DHT22;4333;48.322;14.340;2023-04-06T00:04:45;1.20;7.30
8591;DHT22;4333;48.322;14.340;2023-04-06T00:07:11;1.10;15.50
8591;DHT22;4333;48.322;14.340;2023-04-06T00:09:37;1.00;19.60
8591;DHT22;4333;48.322;14.340;2023-04-06T00:12:05;0.90;22.70
8591;DHT22;4333;48.322;14.340;2023-04-06T00:14:33;0.80;14.90
8591;DHT22;4333;48.322;14.340;2023-04-06T00:17:01;0.80;10.00
8591;DHT22;4333;48.322;14.340;2023-04-06T00:19:27;0.90;8.30
8591;DHT22;4333;48.322;14.340;2023-04-06T00:21:55;0.90;7.90
8591;DHT22;4333;48.322;14.340;2023-04-06T00:24:21;0.80;6.80
8591;DHT22;4333;48.322;14.340;2023-04-06T00:26:46;0.80;1.90
8591;DHT22;4333;48.322;14.340;2023-04-06T00:29:12;0.80;1.00
8591;DHT22;4333;48.322;14.340;2023-04-06T00:31:40;0.70;1.70
8591;DHT22;4333;48.322;14.340;2023-04-06T00:34:06;0.50;10.20
8591;DHT22;4333;48.322;14.340;2023-04-06T00:36:32;0.30;12.60
8591;DHT22;4333;48.322;14.340;2023-04-06T00:38:57;0.30;14.90
8591;DHT22;4333;48.322;14.340;2023-04-06T00:41:23;0.20;16.00
8591;DHT22;4333;48.322;14.340;2023-04-06T00:43:49;0.10;13.20
8591;DHT22;4333;48.322;14.340;2023-04-06T00:46:17;0.00;11.00
8591;DHT22;4333;48.322;14.340;2023-04-06T00:48:45;0.00;7.40
8591;DHT22;4333;48.322;14.340;2023-04-06T00:51:11;0.10;3.70
8591;DHT22;4333;48.322;14.340;2023-04-06T00:53:36;0.20;5.60
8591;DHT22;4333;48.322;14.340;2023-04-06T00:56:02;0.10;11.00
8591;DHT22;4333;48.322;14.340;2023-04-06T00:58:30;-0.10;13.60
8591;DHT22;4333;48.322;14.340;2023-04-06T01:00:56;-0.20;12.40
8591;DHT22;4333;48.322;14.340;2023-04-06T01:03:23;-0.10;5.40
8591;DHT22;4333;48.322;14.340;2023-04-06T01:05:48;0.10;3.30
8591;DHT22;4333;48.322;14.340;2023-04-06T01:08:16;0.10;3.10
8591;DHT22;4333;48.322;14.340;2023-04-06T01:10:42;0.10;5.60
8591;DHT22;4333;48.322;14.340;2023-04-06T01:13:10;0.00;6.90
8591;DHT22;4333;48.322;14.340;2023-04-06T01:15:36;0.00;4.50
8591;DHT22;4333;48.322;14.340;2023-04-06T01:18:04;-0.20;8.40
8591;DHT22;4333;48.322;14.340;2023-04-06T01:20:32;-0.20;6.40
8591;DHT22;4333;48.322;14.340;2023-04-06T01:22:57;-0.10;5.00
8591;DHT22;4333;48.322;14.340;2023-04-06T01:25:23;-0.20;6.80
8591;DHT22;4333;48.322;14.340;2023-04-06T01:27:49;-0.20;10.00
8591;DHT22;4333;48.322;14.340;2023-04-06T01:30:15;-0.30;12.50
8591;DHT22;4333;48.322;14.340;2023-04-06T01:32:42;-0.40;16.30
8591;DHT22;4333;48.322;14.340;2023-04-06T01:35:08;-0.50;18.10
8591;DHT22;4333;48.322;14.340;2023-04-06T01:37:34;-0.60;19.10
8591;DHT22;4333;48.322;14.340;2023-04-06T01:40:00;-0.60;19.70
8591;DHT22;4333;48.322;14.340;2023-04-06T01:42:26;-0.60;20.20
8591;DHT22;4333;48.322;14.340;2023-04-06T01:44:51;-0.60;19.40
8591;DHT22;4333;48.322;14.340;2023-04-06T01:47:17;-0.70;21.20
8591;DHT22;4333;48.322;14.340;2023-04-06T01:49:45;-0.80;22.70
8591;DHT22;4333;48.322;14.340;2023-04-06T01:52:11;-0.80;20.50
8591;DHT22;4333;48.322;14.340;2023-04-06T01:54:36;-0.70;15.80
8591;DHT22;4333;48.322;14.340;2023-04-06T01:57:02;-0.60;14.50
8591;DHT22;4333;48.322;14.340;2023-04-06T01:59:30;-0.60;15.20
8591;DHT22;4333;48.322;14.340;2023-04-06T02:01:56;-0.60;16.50
8591;DHT22;4333;48.322;14.340;2023-04-06T02:04:21;-0.70;19.80
8591;DHT22;4333;48.322;14.340;2023-04-06T02:06:47;-0.80;24.80
8591;DHT22;4333;48.322;14.340;2023-04-06T02:09:13;-0.90;25.40
8591;DHT22;4333;48.322;14.340;2023-04-06T02:11:42;-0.90;22.50
8591;DHT22;4333;48.322;14.340;2023-04-06T02:14:10;-0.80;18.00
8591;DHT22;4333;48.322;14.340;2023-04-06T02:16:36;-0.70;17.70
8591;DHT22;4333;48.322;14.340;2023-04-06T02:19:02;-0.80;20.20
8591;DHT22;4333;48.322;14.340;2023-04-06T02:21:29;-0.90;21.10
8591;DHT22;4333;48.322;14.340;2023-04-06T02:23:55;-0.90;15.80
8591;DHT22;4333;48.322;14.340;2023-04-06T02:26:21;-0.80;16.50
8591;DHT22;4333;48.322;14.340;2023-04-06T02:28:47;-0.90;20.10
8591;DHT22;4333;48.322;14.340;2023-04-06T02:31:12;-0.90;20.40
8591;DHT22;4333;48.322;14.340;2023-04-06T02:33:40;-0.90;17.30
8591;DHT22;4333;48.322;14.340;2023-04-06T02:36:06;-0.80;17.80
8591;DHT22;4333;48.322;14.340;2023-04-06T02:38:31;-0.90;20.90
8591;DHT22;4333;48.322;14.340;2023-04-06T02:40:59;-1.00;24.00
8591;DHT22;4333;48.322;14.340;2023-04-06T02:43:25;-1.00;23.30
8591;DHT22;4333;48.322;14.340;2023-04-06T02:45:53;-1.10;24.80
8591;DHT22;4333;48.322;14.340;2023-04-06T02:48:19;-1.20;31.20
8591;DHT22;4333;48.322;14.340;2023-04-06T02:50:44;-1.30;34.30
8591;DHT22;4333;48.322;14.340;2023-04-06T02:53:10;-1.20;34.50
8591;DHT22;4333;48.322;14.340;2023-04-06T02:55:36;-1.20;34.40
8591;DHT22;4333;48.322;14.340;2023-04-06T02:58:01;-1.30;37.50
8591;DHT22;4333;48.322;14.340;2023-04-06T03:00:27;-1.40;40.90
8591;DHT22;4333;48.322;14.340;2023-04-06T03:02:55;-1.40;41.30
8591;DHT22;4333;48.322;14.340;2023-04-06T03:05:21;-1.40;41.70
8591;DHT22;4333;48.322;14.340;2023-04-06T03:07:46;-1.40;40.90
8591;DHT22;4333;48.322;14.340;2023-04-06T03:10:12;-1.40;43.80
8591;DHT22;4333;48.322;14.340;2023-04-06T03:12:38;-1.40;46.10
8591;DHT22;4333;48.322;14.340;2023-04-06T03:15:04;-1.50;47.00
8591;DHT22;4333;48.322;14.340;2023-04-06T03:17:33;-1.50;47.60
8591;DHT22;4333;48.322;14.340;2023-04-06T03:19:58;-1.50;48.70
8591;DHT22;4333;48.322;14.340;2023-04-06T03:22:24;-1.60;50.80
8591;DHT22;4333;48.322;14.340;2023-04-06T03:24:50;-1.60;49.20
8591;DHT22;4333;48.322;14.340;2023-04-06T03:27:15;-1.60;46.00
8591;DHT22;4333;48.322;14.340;2023-04-06T03:29:41;-1.50;43.60
8591;DHT22;4333;48.322;14.340;2023-04-06T03:32:07;-1.60;43.50
8591;DHT22;4333;48.322;14.340;2023-04-06T03:34:33;-1.60;44.50
8591;DHT22;4333;48.322;14.340;2023-04-06T03:36:58;-1.60;44.20
8591;DHT22;4333;48.322;14.340;2023-04-06T03:39:24;-1.50;43.90
8591;DHT22;4333;48.322;14.340;2023-04-06T03:41:50;-1.60;47.60
8591;DHT22;4333;48.322;14.340;2023-04-06T03:44:16;-1.60;48.80
8591;DHT22;4333;48.322;14.340;2023-04-06T03:46:42;-1.70;48.90
8591;DHT22;4333;48.322;14.340;2023-04-06T03:49:07;-1.60;50.30
8591;DHT22;4333;48.322;14.340;2023-04-06T03:51:33;-1.70;50.60
8591;DHT22;4333;48.322;14.340;2023-04-06T03:53:59;-1.60;50.00
8591;DHT22;4333;48.322;14.340;2023-04-06T03:56:24;-1.60;49.70
8591;DHT22;4333;48.322;14.340;2023-04-06T03:58:50;-1.50;48.90
8591;DHT22;4333;48.322;14.340;2023-04-06T04:01:19;-1.40;47.80
8591;DHT22;4333;48.322;14.340;2023-04-06T04:03:45;-1.40;44.60
8591;DHT22;4333;48.322;14.340;2023-04-06T04:06:11;-1.30;43.60
8591;DHT22;4333;48.322;14.340;2023-04-06T04:08:37;-1.20;41.00
8591;DHT22;4333;48.322;14.340;2023-04-06T04:11:02;-1.10;40.80
8591;DHT22;4333;48.322;14.340;2023-04-06T04:13:28;-1.20;43.60
8591;DHT22;4333;48.322;14.340;2023-04-06T04:15:54;-1.40;46.40
8591;DHT22;4333;48.322;14.340;2023-04-06T04:18:20;-1.40;48.30
8591;DHT22;4333;48.322;14.340;2023-04-06T04:20:46;-1.50;51.00
8591;DHT22;4333;48.322;14.340;2023-04-06T04:23:14;-1.70;54.00
8591;DHT22;4333;48.322;14.340;2023-04-06T04:25:40;-1.80;57.10
8591;DHT22;4333;48.322;14.340;2023-04-06T04:28:06;-1.90;59.50
8591;DHT22;4333;48.322;14.340;2023-04-06T04:30:32;-1.90;62.70
8591;DHT22;4333;48.322;14.340;2023-04-06T04:32:57;-1.90;59.80
8591;DHT22;4333;48.322;14.340;2023-04-06T04:35:23;-1.70;55.00
8591;DHT22;4333;48.322;14.340;2023-04-06T04:37:51;-1.60;52.70
8591;DHT22;4333;48.322;14.340;2023-04-06T04:40:19;-1.60;52.70
8591;DHT22;4333;48.322;14.340;2023-04-06T04:42:45;-1.60;53.10
8591;DHT22;4333;48.322;14.340;2023-04-06T04:45:14;-1.70;55.00
8591;DHT22;4333;48.322;14.340;2023-04-06T04:47:39;-1.80;58.90
8591;DHT22;4333;48.322;14.340;2023-04-06T04:50:08;-1.90;65.50
8591;DHT22;4333;48.322;14.340;2023-04-06T04:52:33;-1.90;66.90
8591;DHT22;4333;48.322;14.340;2023-04-06T04:55:01;-1.90;63.50
8591;DHT22;4333;48.322;14.340;2023-04-06T04:57:27;-1.80;62.40
8591;DHT22;4333;48.322;14.340;2023-04-06T04:59:53;-1.80;63.00
8591;DHT22;4333;48.322;14.340;2023-04-06T05:02:21;-1.70;64.70
8591;DHT22;4333;48.322;14.340;2023-04-06T05:04:46;-1.60;69.60
8591;DHT22;4333;48.322;14.340;2023-04-06T05:07:12;-1.50;69.10
8591;DHT22;4333;48.322;14.340;2023-04-06T05:09:38;-1.40;67.30
8591;DHT22;4333;48.322;14.340;2023-04-06T05:12:04;-1.40;66.30
8591;DHT22;4333;48.322;14.340;2023-04-06T05:14:29;-1.50;66.30
8591;DHT22;4333;48.322;14.340;2023-04-06T05:16:55;-1.50;65.10
8591;DHT22;4333;48.322;14.340;2023-04-06T05:19:21;-1.30;61.00
8591;DHT22;4333;48.322;14.340;2023-04-06T05:21:47;-1.20;57.40
8591;DHT22;4333;48.322;14.340;2023-04-06T05:24:12;-1.00;57.50
8591;DHT22;4333;48.322;14.340;2023-04-06T05:26:39;-0.90;58.60
8591;DHT22;4333;48.322;14.340;2023-04-06T05:29:05;-0.80;58.70
8591;DHT22;4333;48.322;14.340;2023-04-06T05:31:30;-0.70;61.30
8591;DHT22;4333;48.322;14.340;2023-04-06T05:33:56;-0.60;63.10
8591;DHT22;4333;48.322;14.340;2023-04-06T05:36:22;-0.60;62.40
8591;DHT22;4333;48.322;14.340;2023-04-06T05:38:48;-0.60;61.70
8591;DHT22;4333;48.322;14.340;2023-04-06T05:41:18;-0.50;63.30
8591;DHT22;4333;48.322;14.340;2023-04-06T05:43:44;-0.30;64.50
8591;DHT22;4333;48.322;14.340;2023-04-06T05:46:12;0.00;65.70
8591;DHT22;4333;48.322;14.340;2023-04-06T05:48:40;0.30;63.80
8591;DHT22;4333;48.322;14.340;2023-04-06T05:51:07;0.60;58.70
8591;DHT22;4333;48.322;14.340;2023-04-06T05:53:33;0.70;55.30
8591;DHT22;4333;48.322;14.340;2023-04-06T05:56:10;0.80;52.20
8591;DHT22;4333;48.322;14.340;2023-04-06T05:58:36;0.90;50.80
8591;DHT22;4333;48.322;14.340;2023-04-06T06:01:02;0.90;48.10
8591;DHT22;4333;48.322;14.340;2023-04-06T06:03:32;0.90;43.80
8591;DHT22;4333;48.322;14.340;2023-04-06T06:06:04;1.00;42.50
8591;DHT22;4333;48.322;14.340;2023-04-06T06:08:30;1.00;39.20
8591;DHT22;4333;48.322;14.340;2023-04-06T06:10:56;1.00;37.60
8591;DHT22;4333;48.322;14.340;2023-04-06T06:13:23;1.10;38.10
8591;DHT22;4333;48.322;14.340;2023-04-06T06:15:49;1.20;38.70
8591;DHT22;4333;48.322;14.340;2023-04-06T06:18:17;1.30;38.00
8591;DHT22;4333;48.322;14.340;2023-04-06T06:20:43;1.30;38.20
8591;DHT22;4333;48.322;14.340;2023-04-06T06:23:13;1.60;39.00
8591;DHT22;4333;48.322;14.340;2023-04-06T06:25:42;1.90;37.90
8591;DHT22;4333;48.322;14.340;2023-04-06T06:28:10;2.20;36.00
8591;DHT22;4333;48.322;14.340;2023-04-06T06:30:35;2.40;32.50
8591;DHT22;4333;48.322;14.340;2023-04-06T06:33:03;2.50;30.00
8591;DHT22;4333;48.322;14.340;2023-04-06T06:35:29;2.70;30.10
8591;DHT22;4333;48.322;14.340;2023-04-06T06:37:57;2.90;28.90
8591;DHT22;4333;48.322;14.340;2023-04-06T06:40:23;3.00;25.00
8591;DHT22;4333;48.322;14.340;2023-04-06T06:42:49;3.10;26.00
8591;DHT22;4333;48.322;14.340;2023-04-06T06:45:16;3.40;24.90
8591;DHT22;4333;48.322;14.340;2023-04-06T06:47:42;3.40;23.10
8591;DHT22;4333;48.322;14.340;2023-04-06T06:50:08;3.70;22.80
8591;DHT22;4333;48.322;14.340;2023-04-06T06:52:33;3.70;20.10
8591;DHT22;4333;48.322;14.340;2023-04-06T06:54:59;3.80;18.60
8591;DHT22;4333;48.322;14.340;2023-04-06T06:57:26;3.80;17.50
8591;DHT22;4333;48.322;14.340;2023-04-06T06:59:51;3.80;16.10
8591;DHT22;4333;48.322;14.340;2023-04-06T07:02:17;3.70;13.20
8591;DHT22;4333;48.322;14.340;2023-04-06T07:04:43;3.50;10.90
8591;DHT22;4333;48.322;14.340;2023-04-06T07:07:08;3.50;8.10
8591;DHT22;4333;48.322;14.340;2023-04-06T07:09:37;3.50;8.50
8591;DHT22;4333;48.322;14.340;2023-04-06T07:12:03;3.50;6.40
8591;DHT22;4333;48.322;14.340;2023-04-06T07:14:28;3.50;6.50
8591;DHT22;4333;48.322;14.340;2023-04-06T07:16:54;3.50;6.90
8591;DHT22;4333;48.322;14.340;2023-04-06T07:19:23;3.50;6.70
8591;DHT22;4333;48.322;14.340;2023-04-06T07:21:48;3.40;5.80
8591;DHT22;4333;48.322;14.340;2023-04-06T07:24:17;3.30;7.50
8591;DHT22;4333;48.322;14.340;2023-04-06T07:26:43;3.40;8.70
8591;DHT22;4333;48.322;14.340;2023-04-06T07:29:11;3.50;9.60
8591;DHT22;4333;48.322;14.340;2023-04-06T07:31:38;3.60;9.70
8591;DHT22;4333;48.322;14.340;2023-04-06T07:34:03;3.70;9.50
8591;DHT22;4333;48.322;14.340;2023-04-06T07:36:29;3.80;9.60
8591;DHT22;4333;48.322;14.340;2023-04-06T07:38:59;3.90;7.60
8591;DHT22;4333;48.322;14.340;2023-04-06T07:41:27;3.90;5.00
8591;DHT22;4333;48.322;14.340;2023-04-06T07:43:56;4.00;7.30
8591;DHT22;4333;48.322;14.340;2023-04-06T07:46:22;4.10;9.80
8591;DHT22;4333;48.322;14.340;2023-04-06T07:48:47;4.00;8.90
8591;DHT22;4333;48.322;14.340;2023-04-06T07:51:13;3.60;9.00
8591;DHT22;4333;48.322;14.340;2023-04-06T07:53:40;3.50;12.30
8591;DHT22;4333;48.322;14.340;2023-04-06T07:56:06;3.50;12.80
8591;DHT22;4333;48.322;14.340;2023-04-06T07:58:31;3.50;12.30
8591;DHT22;4333;48.322;14.340;2023-04-06T08:00:57;3.50;11.60
8591;DHT22;4333;48.322;14.340;2023-04-06T08:03:23;3.70;9.70
8591;DHT22;4333;48.322;14.340;2023-04-06T08:05:51;4.00;10.00
8591;DHT22;4333;48.322;14.340;2023-04-06T08:08:18;4.00;10.10
8591;DHT22;4333;48.322;14.340;2023-04-06T08:10:45;4.10;9.30
8591;DHT22;4333;48.322;14.340;2023-04-06T08:13:10;4.40;7.00
8591;DHT22;4333;48.322;14.340;2023-04-06T08:15:36;4.80;3.80
8591;DHT22;4333;48.322;14.340;2023-04-06T08:18:05;5.30;1.70
8591;DHT22;4333;48.322;14.340;2023-04-06T08:20:31;5.10;1.00
8591;DHT22;4333;48.322;14.340;2023-04-06T08:22:56;5.10;1.00
8591;DHT22;4333;48.322;14.340;2023-04-06T08:25:25;5.10;1.00
8591;DHT22;4333;48.322;14.340;2023-04-06T08:27:50;5.20;1.00
8591;DHT22;4333;48.322;14.340;2023-04-06T08:30:16;5.70;1.00
8591;DHT22;4333;48.322;14.340;2023-04-06T08:32:44;6.60;1.00
8591;DHT22;4333;48.322;14.340;2023-04-06T08:35:10;7.90;1.00
8591;DHT22;4333;48.322;14.340;2023-04-06T08:37:36;7.80;1.00
8591;DHT22;4333;48.322;14.340;2023-04-06T08:40:02;7.40;1.00
8591;DHT22;4333;48.322;14.340;2023-04-06T08:42:32;7.00;1.00
8591;DHT22;4333;48.322;14.340;2023-04-06T08:44:59;6.80;1.00
8591;DHT22;4333;48.322;14.340;2023-04-06T08:47:25;7.60;1.00
8591;DHT22;4333;48.322;14.340;2023-04-06T08:49:53;8.60;1.00
8591;DHT22;4333;48.322;14.340;2023-04-06T08:52:20;8.90;1.00
8591;DHT22;4333;48.322;14.340;2023-04-06T08:54:46;8.60;1.00
8591;DHT22;4333;48.322;14.340;2023-04-06T08:57:12;8.00;1.00
8591;DHT22;4333;48.322;14.340;2023-04-06T08:59:39;7.40;1.00
8591;DHT22;4333;48.322;14.340;2023-04-06T09:02:09;7.20;1.00
8591;DHT22;4333;48.322;14.340;2023-04-06T09:04:39;7.00;1.00
8591;DHT22;4333;48.322;14.340;2023-04-06T09:07:07;6.70;1.00
8591;DHT22;4333;48.322;14.340;2023-04-06T09:09:32;6.80;1.00
8591;DHT22;4333;48.322;14.340;2023-04-06T09:12:01;7.00;1.00
8591;DHT22;4333;48.322;14.340;2023-04-06T09:14:38;6.80;1.00
8591;DHT22;4333;48.322;14.340;2023-04-06T09:17:04;6.90;1.00
8591;DHT22;4333;48.322;14.340;2023-04-06T09:19:33;6.90;1.00
8591;DHT22;4333;48.322;14.340;2023-04-06T09:22:05;7.10;1.00
8591;DHT22;4333;48.322;14.340;2023-04-06T09:27:09;6.80;1.00
8591;DHT22;4333;48.322;14.340;2023-04-06T09:29:37;7.00;1.00
8591;DHT22;4333;48.322;14.340;2023-04-06T09:34:32;7.30;1.00
8591;DHT22;4333;48.322;14.340;2023-04-06T09:36:58;7.40;1.00
8591;DHT22;4333;48.322;14.340;2023-04-06T09:39:26;8.20;1.00
8591;DHT22;4333;48.322;14.340;2023-04-06T09:41:54;7.90;1.00
8591;DHT22;4333;48.322;14.340;2023-04-06T09:44:21;7.90;1.00
8591;DHT22;4333;48.322;14.340;2023-04-06T09:46:51;7.70;1.00
8591;DHT22;4333;48.322;14.340;2023-04-06T09:49:21;7.70;1.00
8591;DHT22;4333;48.322;14.340;2023-04-06T09:52:04;7.90;1.00
8591;DHT22;4333;48.322;14.340;2023-04-06T09:54:35;7.90;1.00
8591;DHT22;4333;48.322;14.340;2023-04-06T09:57:15;8.30;1.00
8591;DHT22;4333;48.322;14.340;2023-04-06T10:00:09;7.90;1.00
8591;DHT22;4333;48.322;14.340;2023-04-06T10:08:11;10.00;1.00
8591;DHT22;4333;48.322;14.340;2023-04-06T10:10:37;10.30;1.00
8591;DHT22;4333;48.322;14.340;2023-04-06T10:13:07;10.70;1.00
8591;DHT22;4333;48.322;14.340;2023-04-06T10:15:33;10.60;1.00
8591;DHT22;4333;48.322;14.340;2023-04-06T10:18:00;10.80;1.00
8591;DHT22;4333;48.322;14.340;2023-04-06T10:20:41;10.00;1.00
8591;DHT22;4333;48.322;14.340;2023-04-06T10:23:38;9.90;1.00
8591;DHT22;4333;48.322;14.340;2023-04-06T10:26:05;9.70;1.00
8591;DHT22;4333;48.322;14.340;2023-04-06T10:28:34;9.10;1.00
8591;DHT22;4333;48.322;14.340;2023-04-06T10:31:04;9.20;1.00
8591;DHT22;4333;48.322;14.340;2023-04-06T10:33:33;9.50;1.00
8591;DHT22;4333;48.322;14.340;2023-04-06T10:36:15;9.10;1.00
8591;DHT22;4333;48.322;14.340;2023-04-06T10:38:43;8.80;1.00
8591;DHT22;4333;48.322;14.340;2023-04-06T10:41:10;9.40;1.00
8591;DHT22;4333;48.322;14.340;2023-04-06T10:43:38;10.20;1.00
8591;DHT22;4333;48.322;14.340;2023-04-06T10:46:10;11.00;1.00
8591;DHT22;4333;48.322;14.340;2023-04-06T10:48:41;11.50;1.00
8591;DHT22;4333;48.322;14.340;2023-04-06T10:51:18;11.60;1.00
8591;DHT22;4333;48.322;14.340;2023-04-06T10:53:45;11.40;1.00
8591;DHT22;4333;48.322;14.340;2023-04-06T10:56:17;11.70;1.00
8591;DHT22;4333;48.322;14.340;2023-04-06T10:58:47;12.00;1.00
8591;DHT22;4333;48.322;14.340;2023-04-06T11:01:17;11.90;1.00
8591;DHT22;4333;48.322;14.340;2023-04-06T11:03:47;12.00;1.00
8591;DHT22;4333;48.322;14.340;2023-04-06T11:06:27;11.90;1.00
8591;DHT22;4333;48.322;14.340;2023-04-06T11:08:57;11.90;1.00
8591;DHT22;4333;48.322;14.340;2023-04-06T11:11:26;11.20;1.00
8591;DHT22;4333;48.322;14.340;2023-04-06T11:16:26;11.00;1.00
8591;DHT22;4333;48.322;14.340;2023-04-06T11:19:01;11.30;1.00
8591;DHT22;4333;48.322;14.340;2023-04-06T11:21:39;11.60;1.00
8591;DHT22;4333;48.322;14.340;2023-04-06T11:24:22;11.60;1.00
8591;DHT22;4333;48.322;14.340;2023-04-06T11:26:58;11.90;1.00
8591;DHT22;4333;48.322;14.340;2023-04-06T11:29:28;11.90;1.00
8591;DHT22;4333;48.322;14.340;2023-04-06T11:31:59;11.80;1.00
8591;DHT22;4333;48.322;14.340;2023-04-06T11:34:29;11.60;1.00
8591;DHT22;4333;48.322;14.340;2023-04-06T11:36:58;11.70;1.00
8591;DHT22;4333;48.322;14.340;2023-04-06T11:39:26;11.30;1.00
8591;DHT22;4333;48.322;14.340;2023-04-06T11:41:58;11.60;1.00
8591;DHT22;4333;48.322;14.340;2023-04-06T11:44:37;11.50;1.00
8591;DHT22;4333;48.322;14.340;2023-04-06T11:47:06;10.80;1.00
8591;DHT22;4333;48.322;14.340;2023-04-06T11:49:34;10.90;1.00
8591;DHT22;4333;48.322;14.340;2023-04-06T11:52:02;10.70;1.00
8591;DHT22;4333;48.322;14.340;2023-04-06T11:54:37;10.30;1.00
8591;DHT22;4333;48.322;14.340;2023-04-06T11:57:07;10.80;1.00
8591;DHT22;4333;48.322;14.340;2023-04-06T11:59:33;11.60;1.00
8591;DHT22;4333;48.322;14.340;2023-04-06T12:02:01;11.40;1.00
8591;DHT22;4333;48.322;14.340;2023-04-06T12:04:26;10.50;1.00
8591;DHT22;4333;48.322;14.340;2023-04-06T12:06:54;10.60;1.00
8591;DHT22;4333;48.322;14.340;2023-04-06T12:09:20;11.10;1.00
8591;DHT22;4333;48.322;14.340;2023-04-06T12:11:46;11.50;1.00
8591;DHT22;4333;48.322;14.340;2023-04-06T12:14:13;11.90;1.00
8591;DHT22;4333;48.322;14.340;2023-04-06T12:16:39;11.90;1.00
8591;DHT22;4333;48.322;14.340;2023-04-06T12:19:05;11.80;1.00
8591;DHT22;4333;48.322;14.340;2023-04-06T12:21:33;11.60;1.00
8591;DHT22;4333;48.322;14.340;2023-04-06T12:23:59;11.30;1.00
8591;DHT22;4333;48.322;14.340;2023-04-06T12:26:26;11.80;1.00
8591;DHT22;4333;48.322;14.340;2023-04-06T12:28:52;11.90;1.00
8591;DHT22;4333;48.322;14.340;2023-04-06T12:31:19;11.90;1.00
8591;DHT22;4333;48.322;14.340;2023-04-06T12:33:50;12.40;1.00
8591;DHT22;4333;48.322;14.340;2023-04-06T12:36:16;13.10;1.00
8591;DHT22;4333;48.322;14.340;2023-04-06T12:38:50;13.10;1.00
8591;DHT22;4333;48.322;14.340;2023-04-06T12:41:18;12.60;1.00
8591;DHT22;4333;48.322;14.340;2023-04-06T12:43:45;12.20;1.00
8591;DHT22;4333;48.322;14.340;2023-04-06T12:46:11;11.70;1.00
8591;DHT22;4333;48.322;14.340;2023-04-06T12:48:39;12.00;1.00
8591;DHT22;4333;48.322;14.340;2023-04-06T12:51:10;12.50;1.00
8591;DHT22;4333;48.322;14.340;2023-04-06T12:53:38;12.60;1.00
8591;DHT22;4333;48.322;14.340;2023-04-06T12:56:12;12.20;1.00
8591;DHT22;4333;48.322;14.340;2023-04-06T12:58:38;12.10;1.00
8591;DHT22;4333;48.322;14.340;2023-04-06T13:01:06;11.60;1.00
8591;DHT22;4333;48.322;14.340;2023-04-06T13:03:32;11.10;1.00
8591;DHT22;4333;48.322;14.340;2023-04-06T13:06:00;11.40;1.00
8591;DHT22;4333;48.322;14.340;2023-04-06T13:08:26;11.50;1.00
8591;DHT22;4333;48.322;14.340;2023-04-06T13:10:55;12.00;1.00
8591;DHT22;4333;48.322;14.340;2023-04-06T13:13:28;12.40;1.00
8591;DHT22;4333;48.322;14.340;2023-04-06T13:15:58;12.80;1.00
8591;DHT22;4333;48.322;14.340;2023-04-06T13:18:24;12.80;1.00
8591;DHT22;4333;48.322;14.340;2023-04-06T13:20:52;12.60;1.00
8591;DHT22;4333;48.322;14.340;2023-04-06T13:23:18;13.00;1.00
8591;DHT22;4333;48.322;14.340;2023-04-06T13:25:44;13.20;1.00
8591;DHT22;4333;48.322;14.340;2023-04-06T13:28:10;13.20;1.00
8591;DHT22;4333;48.322;14.340;2023-04-06T13:30:39;13.20;1.00
8591;DHT22;4333;48.322;14.340;2023-04-06T13:33:09;13.10;1.00
8591;DHT22;4333;48.322;14.340;2023-04-06T13:35:35;12.70;1.00
8591;DHT22;4333;48.322;14.340;2023-04-06T13:38:01;12.40;1.00
8591;DHT22;4333;48.322;14.340;2023-04-06T13:40:26;12.50;1.00
8591;DHT22;4333;48.322;14.340;2023-04-06T13:42:52;12.80;1.00
8591;DHT22;4333;48.322;14.340;2023-04-06T13:45:20;12.90;1.00
8591;DHT22;4333;48.322;14.340;2023-04-06T13:47:46;12.90;1.00
8591;DHT22;4333;48.322;14.340;2023-04-06T13:50:11;13.10;1.00
8591;DHT22;4333;48.322;14.340;2023-04-06T13:52:40;13.10;1.00
8591;DHT22;4333;48.322;14.340;2023-04-06T13:55:06;13.00;1.00
8591;DHT22;4333;48.322;14.340;2023-04-06T13:57:31;13.10;1.00
8591;DHT22;4333;48.322;14.340;2023-04-06T13:59:57;13.20;1.00
8591;DHT22;4333;48.322;14.340;2023-04-06T14:02:27;12.40;1.00
8591;DHT22;4333;48.322;14.340;2023-04-06T14:04:53;12.60;1.00
8591;DHT22;4333;48.322;14.340;2023-04-06T14:07:20;12.90;1.00
8591;DHT22;4333;48.322;14.340;2023-04-06T14:09:47;13.30;1.00
8591;DHT22;4333;48.322;14.340;2023-04-06T14:12:15;13.20;1.00
8591;DHT22;4333;48.322;14.340;2023-04-06T14:14:41;13.20;1.00
8591;DHT22;4333;48.322;14.340;2023-04-06T14:17:06;12.90;1.00
8591;DHT22;4333;48.322;14.340;2023-04-06T14:19:35;12.30;1.00
8591;DHT22;4333;48.322;14.340;2023-04-06T14:22:01;12.00;1.00
8591;DHT22;4333;48.322;14.340;2023-04-06T14:24:27;12.10;1.00
8591;DHT22;4333;48.322;14.340;2023-04-06T14:26:53;12.10;1.00
8591;DHT22;4333;48.322;14.340;2023-04-06T14:29:21;11.90;1.00
8591;DHT22;4333;48.322;14.340;2023-04-06T14:31:50;11.90;1.00
8591;DHT22;4333;48.322;14.340;2023-04-06T14:34:18;12.00;1.00
8591;DHT22;4333;48.322;14.340;2023-04-06T14:36:46;11.70;1.00
8591;DHT22;4333;48.322;14.340;2023-04-06T14:39:14;11.80;1.00
8591;DHT22;4333;48.322;14.340;2023-04-06T14:41:40;12.10;1.00
8591;DHT22;4333;48.322;14.340;2023-04-06T14:44:06;12.40;1.00
8591;DHT22;4333;48.322;14.340;2023-04-06T14:46:34;12.60;1.00
8591;DHT22;4333;48.322;14.340;2023-04-06T14:49:00;12.40;1.00
8591;DHT22;4333;48.322;14.340;2023-04-06T14:51:26;12.60;1.00
8591;DHT22;4333;48.322;14.340;2023-04-06T14:53:53;12.30;1.00
8591;DHT22;4333;48.322;14.340;2023-04-06T14:56:22;12.20;1.00
8591;DHT22;4333;48.322;14.340;2023-04-06T14:58:49;12.20;1.00
8591;DHT22;4333;48.322;14.340;2023-04-06T15:01:18;12.40;1.00
8591;DHT22;4333;48.322;14.340;2023-04-06T15:03:46;12.60;1.00
8591;DHT22;4333;48.322;14.340;2023-04-06T15:06:13;12.80;1.00
8591;DHT22;4333;48.322;14.340;2023-04-06T15:08:43;12.50;1.00
8591;DHT22;4333;48.322;14.340;2023-04-06T15:11:09;12.70;1.00
8591;DHT22;4333;48.322;14.340;2023-04-06T15:13:35;12.70;1.00
8591;DHT22;4333;48.322;14.340;2023-04-06T15:16:01;12.80;1.00
8591;DHT22;4333;48.322;14.340;2023-04-06T15:18:27;12.90;1.00
8591;DHT22;4333;48.322;14.340;2023-04-06T15:20:52;12.80;1.00
8591;DHT22;4333;48.322;14.340;2023-04-06T15:23:18;12.70;1.00
8591;DHT22;4333;48.322;14.340;2023-04-06T15:25:46;12.60;1.00
8591;DHT22;4333;48.322;14.340;2023-04-06T15:28:12;12.50;1.00
8591;DHT22;4333;48.322;14.340;2023-04-06T15:30:38;12.10;1.00
8591;DHT22;4333;48.322;14.340;2023-04-06T15:33:06;12.10;1.00
8591;DHT22;4333;48.322;14.340;2023-04-06T15:35:32;12.00;1.00
8591;DHT22;4333;48.322;14.340;2023-04-06T15:37:59;12.10;1.00
8591;DHT22;4333;48.322;14.340;2023-04-06T15:40:26;12.30;1.00
8591;DHT22;4333;48.322;14.340;2023-04-06T15:42:52;12.60;1.00
8591;DHT22;4333;48.322;14.340;2023-04-06T15:45:18;12.80;1.00
8591;DHT22;4333;48.322;14.340;2023-04-06T15:47:45;12.60;1.00
8591;DHT22;4333;48.322;14.340;2023-04-06T15:50:11;12.50;1.00
8591;DHT22;4333;48.322;14.340;2023-04-06T15:52:38;12.50;1.00
8591;DHT22;4333;48.322;14.340;2023-04-06T15:55:07;12.60;1.00
8591;DHT22;4333;48.322;14.340;2023-04-06T15:57:33;12.40;1.00
8591;DHT22;4333;48.322;14.340;2023-04-06T16:00:00;12.50;1.00
8591;DHT22;4333;48.322;14.340;2023-04-06T16:02:29;12.30;1.00
8591;DHT22;4333;48.322;14.340;2023-04-06T16:04:57;11.80;1.00
8591;DHT22;4333;48.322;14.340;2023-04-06T16:07:27;11.80;1.00
8591;DHT22;4333;48.322;14.340;2023-04-06T16:09:56;12.10;1.00
8591;DHT22;4333;48.322;14.340;2023-04-06T16:12:22;12.10;1.00
8591;DHT22;4333;48.322;14.340;2023-04-06T16:14:47;12.00;1.00